createdAt,value
2023-05-18T00:00:50.205Z,236.02
2023-05-18T00:01:50.229Z,238.09
2023-05-18T00:02:50.476Z,238.08
2023-05-18T00:03:50.346Z,238.85
2023-05-18T00:04:50.376Z,245.79
2023-05-18T00:05:50.343Z,250.73
2023-05-18T00:06:50.386Z,250.00
2023-05-18T00:07:50.404Z,249.39
2023-05-18T00:08:50.430Z,249.51
2023-05-18T00:09:50.482Z,249.60
2023-05-18T00:10:50.513Z,249.72
2023-05-18T00:11:50.551Z,249.14
2023-05-18T00:12:50.596Z,250.00
2023-05-18T00:13:50.642Z,248.20
2023-05-18T00:14:50.711Z,246.41
2023-05-18T00:15:50.853Z,246.70
2023-05-18T00:16:50.879Z,249.93
2023-05-18T00:17:50.936Z,250.00
2023-05-18T00:18:50.937Z,249.60
2023-05-18T00:19:51.002Z,250.17
2023-05-18T00:20:51.006Z,251.90
2023-05-18T00:21:51.109Z,255.09
2023-05-18T00:22:51.109Z,256.07
2023-05-18T00:23:51.159Z,255.70
2023-05-18T00:24:51.204Z,250.00
2023-05-18T00:25:51.251Z,249.91
2023-05-18T00:26:51.331Z,250.25
2023-05-18T00:27:51.429Z,249.51
2023-05-18T00:28:51.490Z,250.00
2023-05-18T00:29:51.634Z,250.19
2023-05-18T00:30:51.648Z,250.02
2023-05-18T00:31:51.812Z,250.00
2023-05-18T00:32:51.819Z,250.00
2023-05-18T00:33:51.867Z,250.04
2023-05-18T00:34:51.931Z,250.00
2023-05-18T00:35:52.004Z,250.00
2023-05-18T00:36:52.102Z,249.65
2023-05-18T00:37:52.169Z,249.54
2023-05-18T00:38:52.201Z,250.00
2023-05-18T00:39:52.381Z,250.00
2023-05-18T00:40:52.337Z,250.00
2023-05-18T00:41:52.379Z,248.94
2023-05-18T00:42:52.472Z,247.09
2023-05-18T00:43:52.455Z,245.78
2023-05-18T00:44:52.491Z,245.06
2023-05-18T00:45:52.603Z,245.92
2023-05-18T00:46:52.571Z,245.60
2023-05-18T00:47:52.612Z,247.30
2023-05-18T00:48:52.614Z,248.19
2023-05-18T00:49:52.685Z,244.42
2023-05-18T00:50:52.697Z,242.51
2023-05-18T00:51:52.723Z,240.98
2023-05-18T00:52:52.756Z,241.83
2023-05-18T00:53:52.780Z,237.61
2023-05-18T00:54:52.819Z,232.12
2023-05-18T00:55:52.860Z,231.72
2023-05-18T00:56:52.886Z,234.69
2023-05-18T00:57:52.927Z,238.39
2023-05-18T00:58:52.957Z,239.86
2023-05-18T00:59:53.026Z,241.57
2023-05-18T01:00:53.061Z,242.48
2023-05-18T01:01:53.197Z,240.83
2023-05-18T01:02:53.241Z,237.58
2023-05-18T01:03:53.106Z,234.46
2023-05-18T01:04:53.137Z,233.26
2023-05-18T01:05:53.158Z,231.85
2023-05-18T01:06:53.201Z,230.78
2023-05-18T01:07:53.228Z,229.36
2023-05-18T01:08:53.265Z,227.37
2023-05-18T01:09:53.317Z,224.76
2023-05-18T01:10:53.384Z,223.13
2023-05-18T01:11:53.371Z,220.62
2023-05-18T01:12:53.417Z,219.88
2023-05-18T01:13:53.533Z,219.41
2023-05-18T01:14:53.470Z,219.08
2023-05-18T01:15:53.520Z,217.27
2023-05-18T01:16:53.603Z,217.97
2023-05-18T01:17:53.589Z,217.73
2023-05-18T01:18:53.641Z,216.86
2023-05-18T01:19:53.658Z,219.92
2023-05-18T01:20:53.706Z,226.39
2023-05-18T01:21:53.743Z,231.25
2023-05-18T01:22:53.796Z,232.26
2023-05-18T01:23:53.848Z,231.25
2023-05-18T01:24:53.974Z,227.15
2023-05-18T01:25:53.976Z,226.94
2023-05-18T01:26:54.004Z,231.19
2023-05-18T01:27:54.035Z,236.64
2023-05-18T01:28:54.071Z,238.75
2023-05-18T01:29:54.128Z,239.80
2023-05-18T01:30:54.327Z,241.00
2023-05-18T01:31:54.316Z,240.51
2023-05-18T01:32:54.459Z,240.94
2023-05-18T01:33:54.432Z,239.93
2023-05-18T01:34:54.632Z,239.75
2023-05-18T01:35:54.557Z,237.97
2023-05-18T01:36:54.586Z,236.80
2023-05-18T01:37:54.723Z,233.70
2023-05-18T01:38:54.692Z,231.75
2023-05-18T01:39:54.725Z,231.37
2023-05-18T01:40:54.749Z,230.12
2023-05-18T01:41:54.792Z,228.97
2023-05-18T01:42:54.834Z,231.02
2023-05-18T01:43:54.858Z,228.56
2023-05-18T01:44:54.918Z,226.21
2023-05-18T01:45:54.995Z,227.03
2023-05-18T01:46:55.091Z,225.26
2023-05-18T01:47:55.076Z,218.18
2023-05-18T01:48:55.241Z,213.08
2023-05-18T01:49:55.159Z,209.96
2023-05-18T01:50:55.195Z,204.84
2023-05-18T01:51:55.239Z,199.14
2023-05-18T01:52:55.297Z,196.25
2023-05-18T01:53:55.352Z,192.48
2023-05-18T01:54:55.404Z,189.24
2023-05-18T01:55:55.440Z,184.86
2023-05-18T01:56:55.506Z,182.02
2023-05-18T01:57:55.560Z,178.56
2023-05-18T01:58:55.609Z,173.84
2023-05-18T01:59:55.657Z,172.45
2023-05-18T02:00:55.692Z,169.35
2023-05-18T02:01:59.099Z,167.76
2023-05-18T02:02:55.894Z,167.27
2023-05-18T02:03:55.907Z,166.25
2023-05-18T02:04:55.835Z,166.35
2023-05-18T02:05:55.856Z,165.99
2023-05-18T02:06:55.910Z,163.34
2023-05-18T02:07:55.915Z,162.89
2023-05-18T02:08:55.955Z,162.70
2023-05-18T02:09:55.986Z,163.25
2023-05-18T02:10:56.008Z,161.62
2023-05-18T02:11:56.041Z,160.80
2023-05-18T02:12:56.085Z,159.64
2023-05-18T02:13:56.119Z,159.22
2023-05-18T02:14:56.170Z,160.80
2023-05-18T02:15:56.213Z,163.02
2023-05-18T02:16:56.232Z,164.98
2023-05-18T02:17:56.332Z,167.09
2023-05-18T02:18:56.350Z,168.91
2023-05-18T02:19:56.330Z,169.69
2023-05-18T02:20:56.415Z,168.98
2023-05-18T02:21:56.392Z,168.34
2023-05-18T02:22:56.491Z,169.20
2023-05-18T02:23:56.447Z,171.79
2023-05-18T02:24:56.473Z,173.03
2023-05-18T02:25:56.503Z,175.43
2023-05-18T02:26:56.527Z,176.43
2023-05-18T02:27:56.597Z,176.28
2023-05-18T02:28:56.719Z,173.51
2023-05-18T02:29:56.899Z,173.15
2023-05-18T02:30:56.898Z,171.66
2023-05-18T02:31:57.107Z,169.16
2023-05-18T02:32:57.103Z,164.85
2023-05-18T02:33:57.215Z,162.66
2023-05-18T02:34:57.165Z,161.77
2023-05-18T02:35:57.357Z,162.07
2023-05-18T02:36:57.285Z,162.01
2023-05-18T02:37:57.331Z,163.48
2023-05-18T02:38:57.369Z,162.04
2023-05-18T02:39:57.436Z,162.21
2023-05-18T02:40:57.517Z,161.51
2023-05-18T02:41:57.596Z,159.92
2023-05-18T02:42:57.650Z,160.81
2023-05-18T02:43:57.716Z,162.01
2023-05-18T02:44:57.778Z,162.73
2023-05-18T02:45:58.001Z,162.68
2023-05-18T02:46:57.938Z,163.32
2023-05-18T02:47:57.955Z,165.21
2023-05-18T02:48:57.999Z,165.51
2023-05-18T02:49:58.109Z,169.12
2023-05-18T02:50:58.196Z,171.09
2023-05-18T02:51:58.265Z,171.61
2023-05-18T02:52:58.338Z,172.97
2023-05-18T02:53:58.440Z,175.94
2023-05-18T02:54:58.541Z,175.25
2023-05-18T02:55:58.617Z,173.99
2023-05-18T02:56:58.701Z,174.71
2023-05-18T02:57:58.801Z,174.34
2023-05-18T02:58:58.967Z,173.15
2023-05-18T02:59:58.991Z,173.73
2023-05-18T03:00:59.087Z,171.72
2023-05-18T03:01:59.191Z,170.50
2023-05-18T03:02:59.308Z,170.60
2023-05-18T03:03:59.418Z,169.96
2023-05-18T03:04:59.511Z,170.06
2023-05-18T03:05:59.562Z,171.61
2023-05-18T03:06:59.662Z,172.78
2023-05-18T03:07:59.761Z,168.62
2023-05-18T03:08:59.873Z,168.10
2023-05-18T03:09:59.992Z,170.26
2023-05-18T03:11:00.144Z,170.68
2023-05-18T03:12:00.215Z,171.75
2023-05-18T03:13:00.309Z,173.77
2023-05-18T03:14:00.373Z,175.79
2023-05-18T03:15:00.487Z,178.66
2023-05-18T03:16:00.510Z,179.13
2023-05-18T03:17:00.683Z,178.57
2023-05-18T03:18:00.729Z,177.82
2023-05-18T03:19:00.873Z,178.59
2023-05-18T03:20:00.879Z,178.67
2023-05-18T03:21:00.978Z,181.09
2023-05-18T03:22:01.054Z,179.95
2023-05-18T03:23:01.144Z,177.08
2023-05-18T03:24:01.190Z,174.45
2023-05-18T03:25:01.254Z,175.46
2023-05-18T03:26:01.315Z,177.85
2023-05-18T03:27:01.488Z,178.23
2023-05-18T03:28:01.590Z,177.32
2023-05-18T03:29:01.501Z,175.68
2023-05-18T03:30:01.560Z,178.11
2023-05-18T03:31:01.692Z,178.33
2023-05-18T03:32:01.752Z,181.08
2023-05-18T03:33:01.913Z,180.50
2023-05-18T03:34:01.930Z,181.48
2023-05-18T03:35:02.050Z,184.52
2023-05-18T03:36:02.230Z,184.59
2023-05-18T03:37:02.264Z,183.19
2023-05-18T03:38:02.321Z,181.49
2023-05-18T03:39:02.436Z,179.10
2023-05-18T03:40:02.528Z,178.23
2023-05-18T03:41:02.584Z,178.17
2023-05-18T03:42:02.821Z,178.14
2023-05-18T03:43:02.726Z,177.32
2023-05-18T03:44:02.845Z,175.57
2023-05-18T03:45:02.890Z,177.84
2023-05-18T03:46:03.128Z,179.56
2023-05-18T03:47:03.043Z,181.37
2023-05-18T03:48:03.214Z,183.90
2023-05-18T03:49:03.261Z,184.95
2023-05-18T03:50:03.395Z,185.34
2023-05-18T03:51:03.482Z,187.52
2023-05-18T03:52:03.570Z,189.59
2023-05-18T03:53:03.705Z,189.25
2023-05-18T03:54:03.809Z,189.63
2023-05-18T03:55:03.920Z,189.38
2023-05-18T03:56:04.011Z,187.41
2023-05-18T03:57:04.143Z,188.40
2023-05-18T03:58:04.215Z,189.83
2023-05-18T03:59:04.325Z,191.97
2023-05-18T04:00:04.429Z,195.77
2023-05-18T04:01:04.529Z,194.94
2023-05-18T04:02:04.675Z,193.50
2023-05-18T04:03:05.417Z,193.78
2023-05-18T04:04:04.807Z,192.91
2023-05-18T04:05:04.807Z,193.80
2023-05-18T04:06:04.852Z,193.15
2023-05-18T04:07:04.944Z,193.86
2023-05-18T04:08:05.043Z,195.66
2023-05-18T04:09:05.143Z,195.88
2023-05-18T04:10:05.267Z,196.92
2023-05-18T04:11:05.368Z,196.48
2023-05-18T04:12:05.450Z,194.28
2023-05-18T04:13:05.504Z,194.48
2023-05-18T04:14:05.557Z,194.11
2023-05-18T04:15:05.598Z,194.30
2023-05-18T04:16:05.723Z,195.76
2023-05-18T04:17:05.768Z,196.55
2023-05-18T04:18:05.880Z,196.82
2023-05-18T04:19:08.005Z,196.86
2023-05-18T04:20:06.057Z,194.70
2023-05-18T04:21:06.189Z,195.84
2023-05-18T04:22:06.259Z,198.74
2023-05-18T04:23:06.392Z,197.72
2023-05-18T04:24:06.465Z,199.83
2023-05-18T04:25:06.660Z,200.69
2023-05-18T04:26:06.679Z,201.71
2023-05-18T04:27:06.787Z,199.73
2023-05-18T04:28:06.891Z,201.05
2023-05-18T04:29:06.970Z,200.88
2023-05-18T04:30:07.088Z,202.43
2023-05-18T04:31:07.226Z,203.10
2023-05-18T04:32:07.377Z,203.11
2023-05-18T04:33:07.506Z,202.19
2023-05-18T04:34:07.546Z,204.07
2023-05-18T04:35:07.673Z,204.51
2023-05-18T04:36:07.749Z,206.35
2023-05-18T04:37:07.873Z,207.56
2023-05-18T04:38:07.960Z,206.38
2023-05-18T04:39:08.093Z,205.77
2023-05-18T04:40:08.194Z,207.05
2023-05-18T04:41:08.318Z,205.57
2023-05-18T04:42:08.421Z,206.91
2023-05-18T04:43:08.567Z,205.87
2023-05-18T04:44:08.638Z,205.90
2023-05-18T04:45:08.788Z,204.54
2023-05-18T04:46:08.893Z,203.70
2023-05-18T04:47:08.968Z,202.13
2023-05-18T04:48:09.120Z,202.67
2023-05-18T04:49:09.221Z,204.05
2023-05-18T04:50:09.300Z,205.43
2023-05-18T04:51:09.407Z,201.11
2023-05-18T04:52:09.508Z,197.06
2023-05-18T04:53:09.617Z,198.55
2023-05-18T04:54:09.726Z,202.16
2023-05-18T04:55:09.842Z,202.21
2023-05-18T04:56:09.935Z,193.89
2023-05-18T04:57:10.049Z,193.70
2023-05-18T04:58:10.156Z,192.10
2023-05-18T04:59:10.256Z,191.82
2023-05-18T05:00:10.354Z,194.87
2023-05-18T05:01:10.454Z,196.43
2023-05-18T05:02:10.568Z,197.58
2023-05-18T05:03:10.704Z,198.59
2023-05-18T05:04:10.732Z,200.19
2023-05-18T05:05:10.839Z,197.11
2023-05-18T05:06:10.925Z,196.50
2023-05-18T05:07:11.111Z,197.69
2023-05-18T05:08:11.126Z,201.05
2023-05-18T05:09:11.276Z,203.71
2023-05-18T05:10:11.377Z,204.87
2023-05-18T05:11:11.392Z,204.83
2023-05-18T05:12:11.480Z,207.29
2023-05-18T05:13:11.574Z,207.80
2023-05-18T05:14:11.672Z,204.42
2023-05-18T05:15:11.757Z,203.44
2023-05-18T05:16:11.921Z,201.25
2023-05-18T05:17:11.948Z,199.10
2023-05-18T05:18:12.106Z,194.33
2023-05-18T05:19:12.185Z,191.77
2023-05-18T05:20:12.265Z,189.20
2023-05-18T05:21:12.354Z,186.97
2023-05-18T05:22:12.461Z,188.16
2023-05-18T05:23:12.586Z,189.40
2023-05-18T05:24:12.655Z,192.60
2023-05-18T05:25:12.738Z,192.26
2023-05-18T05:26:12.869Z,191.77
2023-05-18T05:27:12.969Z,192.32
2023-05-18T05:28:12.986Z,191.77
2023-05-18T05:29:13.068Z,192.54
2023-05-18T05:30:13.241Z,192.69
2023-05-18T05:31:13.225Z,193.37
2023-05-18T05:32:13.322Z,192.96
2023-05-18T05:33:13.464Z,194.20
2023-05-18T05:34:13.554Z,195.13
2023-05-18T05:35:13.643Z,193.85
2023-05-18T05:36:13.742Z,192.65
2023-05-18T05:37:13.888Z,192.67
2023-05-18T05:38:13.959Z,193.90
2023-05-18T05:39:14.090Z,194.25
2023-05-18T05:40:14.179Z,194.66
2023-05-18T05:41:14.281Z,196.80
2023-05-18T05:42:14.410Z,197.95
2023-05-18T05:43:14.485Z,200.06
2023-05-18T05:44:14.702Z,200.15
2023-05-18T05:45:14.665Z,200.85
2023-05-18T05:46:14.758Z,201.36
2023-05-18T05:47:14.991Z,199.10
2023-05-18T05:48:14.995Z,199.70
2023-05-18T05:49:15.037Z,200.84
2023-05-18T05:50:15.131Z,204.56
2023-05-18T05:51:15.211Z,206.33
2023-05-18T05:52:15.287Z,206.17
2023-05-18T05:53:15.396Z,206.90
2023-05-18T05:54:15.512Z,206.14
2023-05-18T05:55:15.665Z,207.55
2023-05-18T05:56:15.641Z,209.32
2023-05-18T05:57:15.701Z,211.65
2023-05-18T05:58:15.783Z,211.41
2023-05-18T05:59:15.873Z,211.42
2023-05-18T06:00:15.936Z,212.56
2023-05-18T06:01:16.007Z,213.13
2023-05-18T06:02:16.194Z,212.62
2023-05-18T06:03:16.149Z,210.73
2023-05-18T06:04:16.325Z,209.93
2023-05-18T06:05:16.352Z,211.68
2023-05-18T06:06:16.349Z,211.99
2023-05-18T06:07:16.417Z,211.90
2023-05-18T06:08:16.484Z,213.83
2023-05-18T06:09:16.548Z,214.25
2023-05-18T06:10:16.603Z,214.36
2023-05-18T06:11:16.658Z,210.45
2023-05-18T06:12:16.722Z,208.18
2023-05-18T06:13:16.795Z,207.14
2023-05-18T06:14:16.865Z,206.66
2023-05-18T06:15:16.940Z,206.85
2023-05-18T06:16:17.043Z,208.18
2023-05-18T06:17:17.077Z,211.71
2023-05-18T06:18:17.152Z,211.57
2023-05-18T06:19:17.173Z,211.99
2023-05-18T06:20:17.140Z,211.91
2023-05-18T06:21:17.174Z,210.75
2023-05-18T06:22:17.212Z,207.33
2023-05-18T06:23:17.363Z,207.86
2023-05-18T06:24:17.404Z,209.61
2023-05-18T06:25:17.433Z,210.80
2023-05-18T06:26:17.501Z,211.81
2023-05-18T06:27:18.342Z,211.58
2023-05-18T06:28:17.522Z,207.71
2023-05-18T06:29:17.566Z,193.97
2023-05-18T06:30:17.605Z,179.63
2023-05-18T06:31:17.583Z,177.00
2023-05-18T06:32:17.769Z,176.00
2023-05-18T06:33:17.652Z,177.55
2023-05-18T06:34:17.801Z,181.74
2023-05-18T06:35:17.729Z,185.39
2023-05-18T06:36:17.762Z,188.22
2023-05-18T06:37:17.778Z,191.42
2023-05-18T06:38:17.818Z,193.13
2023-05-18T06:39:17.849Z,194.00
2023-05-18T06:40:17.881Z,195.11
2023-05-18T06:41:17.917Z,196.18
2023-05-18T06:42:17.923Z,196.58
2023-05-18T06:43:17.954Z,194.37
2023-05-18T06:44:18.050Z,193.65
2023-05-18T06:45:18.021Z,196.14
2023-05-18T06:46:18.079Z,198.51
2023-05-18T06:47:18.066Z,198.85
2023-05-18T06:48:18.105Z,196.23
2023-05-18T06:49:18.127Z,194.34
2023-05-18T06:50:18.221Z,194.03
2023-05-18T06:51:18.219Z,195.08
2023-05-18T06:52:18.258Z,198.16
2023-05-18T06:53:18.370Z,195.57
2023-05-18T06:54:18.336Z,193.67
2023-05-18T06:55:18.353Z,194.16
2023-05-18T06:56:18.388Z,191.50
2023-05-18T06:57:18.405Z,190.60
2023-05-18T06:58:18.409Z,191.03
2023-05-18T06:59:18.439Z,188.06
2023-05-18T07:00:18.463Z,188.06
2023-05-18T07:01:18.490Z,190.73
2023-05-18T07:02:18.501Z,189.78
2023-05-18T07:03:18.618Z,189.07
2023-05-18T07:04:18.576Z,189.55
2023-05-18T07:05:18.584Z,186.78
2023-05-18T07:06:18.660Z,188.62
2023-05-18T07:07:18.604Z,190.92
2023-05-18T07:08:18.695Z,191.17
2023-05-18T07:09:18.644Z,191.54
2023-05-18T07:10:18.654Z,190.35
2023-05-18T07:11:18.698Z,194.53
2023-05-18T07:12:18.749Z,193.28
2023-05-18T07:13:18.819Z,187.86
2023-05-18T07:14:18.876Z,189.68
2023-05-18T07:15:18.895Z,190.56
2023-05-18T07:16:18.909Z,186.96
2023-05-18T07:17:18.945Z,182.90
2023-05-18T07:18:18.934Z,181.42
2023-05-18T07:19:19.005Z,180.99
2023-05-18T07:20:18.985Z,178.47
2023-05-18T07:21:18.988Z,174.46
2023-05-18T07:22:19.028Z,174.95
2023-05-18T07:23:19.122Z,174.94
2023-05-18T07:24:19.135Z,175.36
2023-05-18T07:25:19.236Z,173.55
2023-05-18T07:26:19.225Z,172.78
2023-05-18T07:27:19.305Z,165.46
2023-05-18T07:28:19.384Z,158.44
2023-05-18T07:29:19.450Z,157.35
2023-05-18T07:30:19.550Z,161.26
2023-05-18T07:31:19.650Z,165.37
2023-05-18T07:32:19.676Z,166.46
2023-05-18T07:33:19.804Z,170.63
2023-05-18T07:34:19.816Z,173.45
2023-05-18T07:35:19.875Z,170.56
2023-05-18T07:36:19.916Z,163.55
2023-05-18T07:37:19.980Z,163.98
2023-05-18T07:38:20.041Z,155.81
2023-05-18T07:39:20.126Z,150.17
2023-05-18T07:40:20.179Z,150.44
2023-05-18T07:41:20.256Z,147.15
2023-05-18T07:42:20.365Z,139.42
2023-05-18T07:43:20.388Z,122.23
2023-05-18T07:44:20.528Z,110.06
2023-05-18T07:45:20.578Z,100.79
2023-05-18T07:46:21.533Z,97.26
2023-05-18T07:47:20.690Z,95.97
2023-05-18T07:48:20.934Z,102.44
2023-05-18T07:49:20.845Z,116.84
2023-05-18T07:50:20.935Z,124.46
2023-05-18T07:51:20.998Z,127.61
2023-05-18T07:52:21.076Z,129.62
2023-05-18T07:53:21.121Z,129.61
2023-05-18T07:54:21.196Z,127.76
2023-05-18T07:55:21.272Z,128.19
2023-05-18T07:56:21.357Z,127.68
2023-05-18T07:57:21.411Z,128.51
2023-05-18T07:58:21.508Z,134.58
2023-05-18T07:59:21.563Z,123.24
2023-05-18T08:00:21.619Z,110.95
2023-05-18T08:01:22.621Z,104.70
2023-05-18T08:02:21.683Z,105.10
2023-05-18T08:03:21.863Z,101.57
2023-05-18T08:04:21.664Z,105.44
2023-05-18T08:05:21.640Z,114.18
2023-05-18T08:06:21.658Z,120.32
2023-05-18T08:07:21.642Z,123.13
2023-05-18T08:08:21.660Z,129.30
2023-05-18T08:09:21.727Z,135.59
2023-05-18T08:10:21.804Z,128.00
2023-05-18T08:11:21.871Z,121.99
2023-05-18T08:12:21.928Z,117.84
2023-05-18T08:13:21.996Z,111.20
2023-05-18T08:14:22.053Z,107.93
2023-05-18T08:15:22.097Z,114.41
2023-05-18T08:16:22.191Z,126.34
2023-05-18T08:17:22.257Z,133.79
2023-05-18T08:18:22.292Z,134.87
2023-05-18T08:19:22.452Z,137.02
2023-05-18T08:20:22.402Z,138.15
2023-05-18T08:21:22.584Z,139.33
2023-05-18T08:22:22.755Z,142.00
2023-05-18T08:23:22.932Z,145.71
2023-05-18T08:24:23.168Z,147.69
2023-05-18T08:25:23.313Z,151.75
2023-05-18T08:26:23.502Z,156.71
2023-05-18T08:27:23.633Z,153.62
2023-05-18T08:28:23.794Z,151.19
2023-05-18T08:29:23.978Z,147.30
2023-05-18T08:30:24.181Z,143.50
2023-05-18T08:31:24.321Z,134.20
2023-05-18T08:32:24.559Z,128.65
2023-05-18T08:33:24.689Z,128.31
2023-05-18T08:34:24.925Z,121.23
2023-05-18T08:35:25.049Z,111.81
2023-05-18T08:36:25.297Z,106.05
2023-05-18T08:37:25.512Z,103.99
2023-05-18T08:38:25.734Z,98.47
2023-05-18T08:39:25.904Z,96.33
2023-05-18T08:40:26.121Z,96.44
2023-05-18T08:41:26.226Z,102.80
2023-05-18T08:42:34.449Z,109.88
2023-05-18T08:43:28.918Z,110.12
2023-05-18T08:44:26.446Z,110.36
2023-05-18T08:45:26.443Z,112.28
2023-05-18T08:46:26.469Z,116.83
2023-05-18T08:47:26.462Z,123.10
2023-05-18T08:48:28.241Z,130.66
2023-05-18T08:49:26.435Z,131.05
2023-05-18T08:50:26.436Z,128.77
2023-05-18T08:51:26.425Z,127.40
2023-05-18T08:52:26.497Z,125.26
2023-05-18T08:53:26.431Z,128.20
2023-05-18T08:54:26.605Z,130.71
2023-05-18T08:55:26.778Z,127.95
2023-05-18T08:56:26.995Z,132.04
2023-05-18T08:57:27.147Z,135.56
2023-05-18T08:58:27.307Z,138.70
2023-05-18T08:59:27.507Z,137.44
2023-05-18T09:00:27.665Z,135.03
2023-05-18T09:01:27.845Z,135.52
2023-05-18T09:02:28.042Z,137.49
2023-05-18T09:03:28.187Z,136.94
2023-05-18T09:04:28.364Z,136.24
2023-05-18T09:05:28.597Z,132.97
2023-05-18T09:06:28.674Z,120.50
2023-05-18T09:07:28.858Z,100.42
2023-05-18T09:08:29.086Z,89.34
2023-05-18T09:09:29.207Z,84.53
2023-05-18T09:10:29.394Z,77.74
2023-05-18T09:11:29.569Z,85.45
2023-05-18T09:12:29.769Z,92.80
2023-05-18T09:13:29.878Z,97.65
2023-05-18T09:14:30.047Z,92.26
2023-05-18T09:15:30.390Z,98.70
2023-05-18T09:16:30.511Z,106.40
2023-05-18T09:17:30.595Z,106.24
2023-05-18T09:18:30.740Z,106.32
2023-05-18T09:19:31.029Z,108.95
2023-05-18T09:20:31.244Z,110.87
2023-05-18T09:21:31.393Z,111.51
2023-05-18T09:22:31.513Z,115.00
2023-05-18T09:23:31.689Z,116.74
2023-05-18T09:24:31.848Z,116.16
2023-05-18T09:25:32.165Z,111.41
2023-05-18T09:26:32.164Z,111.19
2023-05-18T09:27:32.306Z,111.44
2023-05-18T09:28:32.440Z,109.32
2023-05-18T09:29:33.871Z,108.65
2023-05-18T09:30:32.659Z,108.69
2023-05-18T09:31:32.758Z,110.34
2023-05-18T09:32:32.835Z,112.83
2023-05-18T09:33:32.896Z,110.71
2023-05-18T09:34:32.908Z,107.15
2023-05-18T09:35:33.114Z,108.05
2023-05-18T09:36:33.005Z,109.59
2023-05-18T09:37:33.045Z,108.87
2023-05-18T09:38:33.083Z,109.07
2023-05-18T09:39:33.113Z,107.29
2023-05-18T09:40:33.173Z,108.57
2023-05-18T09:41:33.200Z,107.04
2023-05-18T09:42:33.258Z,100.66
2023-05-18T09:43:33.328Z,83.19
2023-05-18T09:44:33.425Z,68.95
2023-05-18T09:45:33.524Z,67.02
2023-05-18T09:46:33.509Z,65.90
2023-05-18T09:47:33.760Z,71.96
2023-05-18T09:48:33.872Z,77.05
2023-05-18T09:49:33.948Z,73.25
2023-05-18T09:50:34.131Z,67.89
2023-05-18T09:51:34.273Z,60.54
2023-05-18T09:52:34.526Z,61.55
2023-05-18T09:53:34.646Z,61.27
2023-05-18T09:54:34.987Z,62.95
2023-05-18T09:55:35.042Z,63.76
2023-05-18T09:56:35.198Z,62.04
2023-05-18T09:57:35.405Z,61.74
2023-05-18T09:58:35.544Z,56.71
2023-05-18T09:59:35.716Z,57.76
2023-05-18T10:00:35.854Z,40.98
2023-05-18T10:01:36.009Z,35.52
2023-05-18T10:02:36.119Z,36.07
2023-05-18T10:03:36.305Z,42.46
2023-05-18T10:04:36.566Z,50.73
2023-05-18T10:05:36.904Z,51.51
2023-05-18T10:06:36.685Z,54.78
2023-05-18T10:07:36.733Z,55.06
2023-05-18T10:08:36.761Z,47.09
2023-05-18T10:09:36.771Z,43.21
2023-05-18T10:10:36.854Z,47.98
2023-05-18T10:11:36.900Z,50.49
2023-05-18T10:12:36.902Z,49.41
2023-05-18T10:13:36.943Z,51.30
2023-05-18T10:14:36.972Z,53.85
2023-05-18T10:15:37.009Z,58.16
2023-05-18T10:16:37.100Z,54.78
2023-05-18T10:17:37.233Z,51.50
2023-05-18T10:18:37.151Z,50.06
2023-05-18T10:19:37.140Z,43.67
2023-05-18T10:20:37.165Z,38.23
2023-05-18T10:21:37.247Z,33.04
2023-05-18T10:22:37.216Z,31.25
2023-05-18T10:23:37.258Z,33.49
2023-05-18T10:24:37.256Z,34.83
2023-05-18T10:25:37.275Z,34.61
2023-05-18T10:26:37.308Z,42.67
2023-05-18T10:27:37.386Z,49.40
2023-05-18T10:28:37.517Z,53.55
2023-05-18T10:29:37.768Z,54.98
2023-05-18T10:30:37.968Z,53.30
2023-05-18T10:31:38.100Z,48.51
2023-05-18T10:32:38.293Z,43.78
2023-05-18T10:33:38.515Z,34.87
2023-05-18T10:34:38.550Z,33.64
2023-05-18T10:35:38.714Z,36.07
2023-05-18T10:36:38.925Z,30.32
2023-05-18T10:37:39.089Z,28.59
2023-05-18T10:38:39.284Z,29.29
2023-05-18T10:39:39.485Z,30.07
2023-05-18T10:40:39.641Z,28.87
2023-05-18T10:41:39.752Z,25.00
2023-05-18T10:42:39.946Z,25.00
2023-05-18T10:43:40.074Z,26.05
2023-05-18T10:44:40.254Z,26.97
2023-05-18T10:45:40.508Z,27.35
2023-05-18T10:46:40.657Z,31.16
2023-05-18T10:47:40.951Z,26.90
2023-05-18T10:48:40.738Z,28.47
2023-05-18T10:49:40.707Z,25.96
2023-05-18T10:50:40.727Z,25.34
2023-05-18T10:51:40.731Z,31.87
2023-05-18T10:52:40.775Z,32.14
2023-05-18T10:53:40.775Z,36.02
2023-05-18T10:54:40.798Z,32.36
2023-05-18T10:55:40.813Z,30.71
2023-05-18T10:56:40.824Z,27.53
2023-05-18T10:57:40.842Z,25.00
2023-05-18T10:58:40.813Z,25.00
2023-05-18T10:59:42.575Z,25.00
2023-05-18T11:00:40.825Z,25.00
2023-05-18T11:01:40.922Z,22.56
2023-05-18T11:02:40.889Z,27.62
2023-05-18T11:03:40.867Z,32.80
2023-05-18T11:04:40.951Z,33.86
2023-05-18T11:05:40.886Z,33.30
2023-05-18T11:06:40.917Z,33.13
2023-05-18T11:07:40.913Z,33.60
2023-05-18T11:08:40.925Z,22.93
2023-05-18T11:09:40.956Z,15.95
2023-05-18T11:10:40.944Z,22.01
2023-05-18T11:11:40.960Z,24.29
2023-05-18T11:12:40.896Z,29.90
2023-05-18T11:13:40.933Z,32.74
2023-05-18T11:14:40.915Z,30.00
2023-05-18T11:15:40.933Z,25.17
2023-05-18T11:16:40.967Z,28.50
2023-05-18T11:17:41.028Z,32.03
2023-05-18T11:18:41.050Z,27.18
2023-05-18T11:19:41.032Z,25.74
2023-05-18T11:20:41.145Z,27.01
2023-05-18T11:21:41.088Z,34.18
2023-05-18T11:22:41.124Z,36.47
2023-05-18T11:23:41.139Z,25.00
2023-05-18T11:24:41.172Z,27.33
2023-05-18T11:25:41.128Z,36.34
2023-05-18T11:26:41.147Z,35.97
2023-05-18T11:27:41.159Z,31.48
2023-05-18T11:28:41.193Z,25.56
2023-05-18T11:29:41.197Z,26.17
2023-05-18T11:30:41.235Z,24.80
2023-05-18T11:31:41.257Z,23.31
2023-05-18T11:32:41.403Z,29.08
2023-05-18T11:33:41.365Z,34.74
2023-05-18T11:34:41.269Z,38.54
2023-05-18T11:35:41.346Z,33.93
2023-05-18T11:36:41.274Z,26.66
2023-05-18T11:37:41.292Z,22.66
2023-05-18T11:38:41.297Z,22.68
2023-05-18T11:39:51.828Z,25.67
2023-05-18T11:40:42.194Z,16.47
2023-05-18T11:41:41.136Z,13.13
2023-05-18T11:42:41.104Z,6.75
2023-05-18T11:43:41.094Z,0.00
2023-05-18T11:44:41.089Z,0.00
2023-05-18T11:45:41.003Z,6.25
2023-05-18T11:46:40.984Z,18.38
2023-05-18T11:47:41.506Z,25.76
2023-05-18T11:48:41.016Z,30.81
2023-05-18T11:49:40.861Z,22.73
2023-05-18T11:50:40.853Z,22.74
2023-05-18T11:51:40.806Z,19.97
2023-05-18T11:52:40.760Z,17.11
2023-05-18T11:53:40.812Z,15.00
2023-05-18T11:54:40.706Z,24.26
2023-05-18T11:55:40.723Z,29.24
2023-05-18T11:56:40.737Z,41.28
2023-05-18T11:57:40.751Z,47.66
2023-05-18T11:58:40.706Z,50.52
2023-05-18T11:59:40.706Z,54.63
2023-05-18T12:00:40.698Z,60.51
2023-05-18T12:01:40.691Z,57.89
2023-05-18T12:02:40.758Z,42.64
2023-05-18T12:03:40.798Z,33.56
2023-05-18T12:04:40.847Z,29.76
2023-05-18T12:05:40.821Z,34.11
2023-05-18T12:06:40.852Z,41.52
2023-05-18T12:07:40.869Z,47.73
2023-05-18T12:08:40.863Z,36.60
2023-05-18T12:09:40.905Z,28.02
2023-05-18T12:10:40.913Z,24.57
2023-05-18T12:11:40.957Z,22.63
2023-05-18T12:12:40.978Z,26.80
2023-05-18T12:13:40.990Z,30.55
2023-05-18T12:14:41.015Z,42.94
2023-05-18T12:15:40.987Z,56.06
2023-05-18T12:16:41.013Z,64.89
2023-05-18T12:17:41.020Z,67.18
2023-05-18T12:18:40.917Z,63.45
2023-05-18T12:19:40.873Z,65.05
2023-05-18T12:20:40.838Z,68.77
2023-05-18T12:21:40.801Z,70.85
2023-05-18T12:22:40.765Z,70.07
2023-05-18T12:23:40.717Z,59.31
2023-05-18T12:24:40.709Z,49.44
2023-05-18T12:25:40.669Z,44.54
2023-05-18T12:26:40.610Z,41.58
2023-05-18T12:27:40.684Z,38.72
2023-05-18T12:28:40.558Z,35.83
2023-05-18T12:29:40.548Z,34.07
2023-05-18T12:30:40.556Z,28.01
2023-05-18T12:31:40.642Z,23.39
2023-05-18T12:32:40.523Z,24.76
2023-05-18T12:33:40.493Z,26.09
2023-05-18T12:34:40.465Z,32.03
2023-05-18T12:35:40.441Z,48.70